Gabes Matmata International Airport


Codes: DTTG/GAE
Name: Gabes Matmata International Airport
City: Gabes
Country: Tunisia
Elevation: 26 ft.
Wikipedia:

Photos at Gabes Matmata International Airport


   Photos courtesy of SpottingLog. You can add your own sightings and photos by signing up for a free trial today.



No photos found.

Weather at Gabes Matmata International Airport


Time (UTC)DescriptionTempratureWindCloud coverageVisibilityPressureHumidity
26-Jun-2024 00:00Clear Sky24°C9 mph, E0%10000m1012hPa58%
26-Jun-2024 03:00Clear Sky24°C11 mph, E0%10000m1012hPa64%
26-Jun-2024 06:00Clear Sky24°C11 mph, E0%10000m1013hPa66%
26-Jun-2024 09:00Clear Sky27°C11 mph, E0%10000m1013hPa52%
26-Jun-2024 12:00Clear Sky29°C13 mph, NE0%10000m1013hPa49%
26-Jun-2024 15:00Clear Sky27°C13 mph, NE0%10000m1012hPa58%
26-Jun-2024 18:00Clear Sky27°C18 mph, E0%10000m1012hPa58%
26-Jun-2024 21:00Clear Sky26°C20 mph, SE0%10000m1012hPa59%
27-Jun-2024 00:00Clear Sky26°C11 mph, SE0%10000m1012hPa55%
27-Jun-2024 03:00Clear Sky26°C16 mph, SE0%10000m1011hPa57%
27-Jun-2024 06:00Few Clouds27°C4 mph, E14%10000m1012hPa51%
27-Jun-2024 09:00Clear Sky29°C9 mph, NE5%10000m1013hPa49%
27-Jun-2024 12:00Clear Sky33°C11 mph, NE3%10000m1012hPa41%
27-Jun-2024 15:00Clear Sky30°C13 mph, NE0%10000m1011hPa50%
27-Jun-2024 18:00Clear Sky31°C11 mph, E0%10000m1011hPa48%
27-Jun-2024 21:00Clear Sky30°C13 mph, SE0%10000m1011hPa49%
28-Jun-2024 00:00Clear Sky30°C9 mph, SE0%10000m1010hPa39%
28-Jun-2024 03:00Clear Sky26°C11 mph, NE0%10000m1011hPa72%
28-Jun-2024 06:00Clear Sky27°C4 mph, NE1%10000m1013hPa67%
28-Jun-2024 09:00Clear Sky32°C4 mph, NE3%10000m1013hPa47%
28-Jun-2024 12:00Clear Sky34°C16 mph, NE3%10000m1012hPa42%
28-Jun-2024 15:00Clear Sky32°C11 mph, E0%10000m1012hPa50%
28-Jun-2024 18:00Clear Sky29°C11 mph, E9%10000m1013hPa62%
28-Jun-2024 21:00Overcast Clouds26°C16 mph, NE85%10000m1016hPa74%
29-Jun-2024 00:00Broken Clouds26°C11 mph, NE61%10000m1015hPa71%
29-Jun-2024 03:00Clear Sky26°C9 mph, E6%10000m1014hPa74%
29-Jun-2024 06:00Clear Sky26°C7 mph, E4%10000m1015hPa68%
29-Jun-2024 09:00Clear Sky29°C9 mph, NE7%10000m1016hPa54%
29-Jun-2024 12:00Clear Sky31°C11 mph, E6%10000m1014hPa46%
29-Jun-2024 15:00Clear Sky32°C13 mph, E2%10000m1013hPa43%
29-Jun-2024 18:00Clear Sky30°C13 mph, E1%10000m1013hPa51%
29-Jun-2024 21:00Clear Sky28°C9 mph, E0%10000m1015hPa57%
30-Jun-2024 00:00Clear Sky27°C11 mph, SE3%10000m1014hPa62%
30-Jun-2024 03:00Clear Sky26°C7 mph, SE3%10000m1013hPa56%
30-Jun-2024 06:00Clear Sky27°C11 mph, SE3%10000m1014hPa52%
30-Jun-2024 09:00Clear Sky32°C11 mph, E0%10000m1014hPa39%
30-Jun-2024 12:00Clear Sky33°C13 mph, E0%10000m1013hPa38%
30-Jun-2024 15:00Clear Sky34°C13 mph, E2%10000m1012hPa40%
30-Jun-2024 18:00Clear Sky32°C18 mph, SE1%10000m1012hPa39%
30-Jun-2024 21:00Clear Sky30°C16 mph, SE1%10000m1014hPa48%